Main page
METAR-TAF:

METAR-TAF

Airports :

Exeter Airport

Exeter, England

latitude: 50-44N, longitude: 003-25W, elevation: 30 m

Current weather observation

The report was made 32 minutes ago, at 20:50 UTC
Wind 13 kt from the South
Temperature 12°C
Humidity 82%
Pressure 1023 hPa
Visibility 10 km or more
Few clouds at a height of 2000 ft

METAR: EGTE 132050Z 19013KT 9999 FEW020 12/09 Q1023

Time: 21:22 (21:22 UTC)

Forecast

The report was made 1 hour and 20 minutes ago, at 20:02 UTC
Forecast valid from 13 at 21 UTC to 14 at 04 UTC
Wind 11 kt from the South/Southwest
Visibility 10 km or more
Few clouds at a height of 2500 ft
Probability 30% :
Temporary
from 13 at 21 UTC to 14 at 04 UTC
Wind 15 kt from the South with gusts up to 25 kt

TAF: EGTE 132002Z 1321/1404 20011KT 9999 FEW025 PROB30 TEMPO 1321/1404 18015G25KT

Weather observations and forecasts of more than 4000 airports (METAR and TAF reports).

The available stations are represented by yellow and red dots on the map.

Hover mouse over dot to see the name of the station.

Then click to see weather observations and forecasts.

To change the map : click on the green buttons with a black cross to zoom in, on the green button with a dash to zoom out, or on the green arrows for adjacent maps.


METAR-TAF: